createdAt,value
2017-06-25T00:01:02.011Z,62.20
2017-06-25T00:03:29.528Z,62.20
2017-06-25T00:05:55.944Z,62.20
2017-06-25T00:08:22.404Z,62.30
2017-06-25T00:10:48.861Z,61.80
2017-06-25T00:13:15.265Z,61.90
2017-06-25T00:15:41.699Z,62.30
2017-06-25T00:18:08.153Z,62.30
2017-06-25T00:20:34.568Z,61.20
2017-06-25T00:23:00.982Z,61.30
2017-06-25T00:25:27.404Z,60.80
2017-06-25T00:27:54.589Z,61.30
2017-06-25T00:30:21.055Z,60.70
2017-06-25T00:32:47.468Z,61.50
2017-06-25T00:35:14.026Z,62.20
2017-06-25T00:37:40.587Z,62.20
2017-06-25T00:40:07.000Z,61.30
2017-06-25T00:42:33.729Z,60.70
2017-06-25T00:45:00.146Z,60.50
2017-06-25T00:47:26.644Z,60.60
2017-06-25T00:49:53.080Z,60.00
2017-06-25T00:52:19.690Z,60.60
2017-06-25T00:54:46.176Z,59.80
2017-06-25T00:57:13.321Z,61.10
2017-06-25T00:59:39.767Z,60.70
2017-06-25T01:02:06.185Z,60.80
2017-06-25T01:04:32.590Z,60.10
2017-06-25T01:06:59.728Z,60.50
2017-06-25T01:09:26.215Z,60.50
2017-06-25T01:11:52.691Z,60.10
2017-06-25T01:14:19.109Z,60.10
2017-06-25T01:16:45.512Z,60.10
2017-06-25T01:19:12.686Z,60.60
2017-06-25T01:21:39.125Z,60.50
2017-06-25T01:24:05.547Z,61.30
2017-06-25T01:26:31.929Z,61.40
2017-06-25T01:28:58.335Z,61.20
2017-06-25T01:31:25.540Z,62.10
2017-06-25T01:33:52.688Z,61.80
2017-06-25T01:36:19.906Z,62.20
2017-06-25T01:38:46.388Z,62.10
2017-06-25T01:41:12.835Z,62.70
2017-06-25T01:43:39.988Z,62.80
2017-06-25T01:46:06.426Z,62.00
2017-06-25T01:48:32.864Z,62.10
2017-06-25T01:50:59.318Z,62.30
2017-06-25T01:53:25.730Z,62.10
2017-06-25T01:55:52.195Z,62.50
2017-06-25T01:58:18.700Z,62.40
2017-06-25T02:00:45.131Z,63.00
2017-06-25T02:03:11.567Z,63.30
2017-06-25T02:05:38.351Z,62.90
2017-06-25T02:08:05.549Z,63.20
2017-06-25T02:10:32.005Z,63.20
2017-06-25T02:12:58.443Z,63.20
2017-06-25T02:15:24.835Z,63.40
2017-06-25T02:17:51.252Z,63.50
2017-06-25T02:20:17.684Z,64.40
2017-06-25T02:22:44.088Z,64.50
2017-06-25T02:25:10.537Z,64.20
2017-06-25T02:27:38.243Z,64.00
2017-06-25T02:30:04.671Z,64.00
2017-06-25T02:32:31.079Z,64.50
2017-06-25T02:34:57.506Z,65.20
2017-06-25T02:37:23.929Z,65.10
2017-06-25T02:39:50.381Z,64.60
2017-06-25T02:42:16.838Z,64.40
2017-06-25T02:44:43.968Z,65.50
2017-06-25T02:47:10.388Z,65.50
2017-06-25T02:49:36.829Z,65.10
2017-06-25T02:52:03.199Z,65.10
2017-06-25T02:54:29.629Z,65.00
2017-06-25T02:56:56.035Z,64.90
2017-06-25T02:59:23.216Z,64.90
2017-06-25T03:01:49.636Z,64.80
2017-06-25T03:04:16.053Z,65.00
2017-06-25T03:06:42.617Z,64.90
2017-06-25T03:09:21.176Z,65.20
2017-06-25T03:11:47.628Z,64.90
2017-06-25T03:14:14.060Z,65.40
2017-06-25T03:16:41.207Z,65.10
2017-06-25T03:19:07.641Z,64.60
2017-06-25T03:21:34.820Z,65.80
2017-06-25T03:24:01.243Z,65.10
2017-06-25T03:26:27.700Z,65.20
2017-06-25T03:28:54.168Z,65.60
2017-06-25T03:31:21.017Z,65.30
2017-06-25T03:33:47.427Z,65.50
2017-06-25T03:36:13.872Z,65.50
2017-06-25T03:38:40.367Z,65.50
2017-06-25T03:41:06.791Z,65.60
2017-06-25T03:43:33.241Z,66.20
2017-06-25T03:45:59.693Z,65.60
2017-06-25T03:48:26.181Z,66.10
2017-06-25T03:50:53.340Z,66.60
2017-06-25T03:53:19.787Z,66.20
2017-06-25T03:55:46.252Z,66.20
2017-06-25T03:58:12.688Z,66.60
2017-06-25T04:00:39.112Z,66.10
2017-06-25T04:03:06.292Z,66.00
2017-06-25T04:05:32.717Z,66.00
2017-06-25T04:07:59.151Z,65.60
2017-06-25T04:10:25.605Z,65.70
2017-06-25T04:12:52.050Z,65.70
2017-06-25T04:15:18.495Z,66.40
2017-06-25T04:17:45.677Z,65.70
2017-06-25T04:20:12.117Z,65.60
2017-06-25T04:22:38.536Z,65.60
2017-06-25T04:25:05.328Z,65.50
2017-06-25T04:27:31.724Z,65.40
2017-06-25T04:29:58.163Z,65.30
2017-06-25T04:32:24.584Z,65.40
2017-06-25T04:34:51.016Z,66.00
2017-06-25T04:37:17.412Z,66.10
2017-06-25T04:39:43.845Z,65.70
2017-06-25T04:42:10.272Z,66.10
2017-06-25T04:44:36.684Z,66.90
2017-06-25T04:47:03.112Z,65.40
2017-06-25T04:49:29.505Z,65.70
2017-06-25T04:51:56.683Z,65.00
2017-06-25T04:54:23.147Z,65.00
2017-06-25T04:56:49.569Z,65.50
2017-06-25T04:59:15.989Z,66.40
2017-06-25T05:01:42.427Z,65.40
2017-06-25T05:04:09.368Z,65.10
2017-06-25T05:06:35.830Z,65.30
2017-06-25T05:09:02.294Z,65.60
2017-06-25T05:11:28.788Z,65.40
2017-06-25T05:13:55.233Z,65.90
2017-06-25T05:16:21.661Z,65.60
2017-06-25T05:18:48.103Z,65.80
2017-06-25T05:21:14.566Z,66.40
2017-06-25T05:23:41.409Z,66.10
2017-06-25T05:26:07.867Z,66.00
2017-06-25T05:28:34.283Z,66.10
2017-06-25T05:31:01.470Z,66.10
2017-06-25T05:33:27.897Z,65.80
2017-06-25T05:35:54.399Z,65.90
2017-06-25T05:38:20.879Z,66.30
2017-06-25T05:40:47.268Z,66.10
2017-06-25T05:43:13.684Z,66.20
2017-06-25T05:45:40.139Z,66.50
2017-06-25T05:48:06.619Z,66.70
2017-06-25T05:50:33.063Z,66.40
2017-06-25T05:53:00.236Z,65.10
2017-06-25T05:55:26.653Z,64.90
2017-06-25T05:57:53.111Z,64.30
2017-06-25T06:00:19.571Z,64.40
2017-06-25T06:02:46.752Z,65.20
2017-06-25T06:05:13.176Z,64.60
2017-06-25T06:07:39.604Z,64.40
2017-06-25T06:10:06.037Z,64.60
2017-06-25T06:12:32.464Z,65.00
2017-06-25T06:14:58.892Z,64.60
2017-06-25T06:17:26.076Z,64.50
2017-06-25T06:19:52.480Z,64.50
2017-06-25T06:22:19.715Z,63.50
2017-06-25T06:24:46.140Z,64.30
2017-06-25T06:27:12.564Z,64.20
2017-06-25T06:29:38.977Z,64.80
2017-06-25T06:32:05.445Z,63.90
2017-06-25T06:34:31.889Z,63.70
2017-06-25T06:36:58.384Z,63.70
2017-06-25T06:39:24.816Z,64.10
2017-06-25T06:41:51.223Z,64.10
2017-06-25T06:44:17.630Z,64.00
2017-06-25T06:46:44.071Z,63.90
2017-06-25T06:49:10.492Z,63.30
2017-06-25T06:51:36.911Z,64.40
2017-06-25T06:54:03.638Z,63.40
2017-06-25T06:56:30.084Z,64.20
2017-06-25T06:58:56.512Z,63.20
2017-06-25T07:01:23.001Z,62.10
2017-06-25T07:03:50.180Z,62.10
2017-06-25T07:06:16.613Z,61.60
2017-06-25T07:08:43.076Z,62.60
2017-06-25T07:11:09.576Z,62.10
2017-06-25T07:13:36.659Z,62.20
2017-06-25T07:16:03.167Z,62.00
2017-06-25T07:18:29.612Z,62.00
2017-06-25T07:20:56.185Z,62.00
2017-06-25T07:23:22.663Z,61.90
2017-06-25T07:25:50.246Z,62.00
2017-06-25T07:28:16.682Z,62.10
2017-06-25T07:30:43.112Z,61.30
2017-06-25T07:33:10.022Z,61.00
2017-06-25T07:35:36.444Z,61.90
2017-06-25T07:38:02.912Z,61.20
2017-06-25T07:40:29.380Z,60.70
2017-06-25T07:42:57.171Z,61.30
2017-06-25T07:45:23.624Z,60.10
2017-06-25T07:47:50.036Z,60.10
2017-06-25T07:50:16.587Z,59.80
2017-06-25T07:52:43.110Z,60.50
2017-06-25T07:55:09.648Z,61.50
2017-06-25T07:57:36.080Z,60.60
2017-06-25T08:00:02.551Z,59.90
2017-06-25T08:02:29.731Z,59.30
2017-06-25T08:04:56.119Z,59.30
2017-06-25T08:07:23.291Z,59.50
2017-06-25T08:09:49.736Z,59.10
2017-06-25T08:12:16.262Z,59.50
2017-06-25T08:14:42.669Z,59.20
2017-06-25T08:17:10.177Z,58.50
2017-06-25T08:19:36.660Z,58.50
2017-06-25T08:22:04.791Z,58.50
2017-06-25T08:24:31.244Z,58.70
2017-06-25T08:26:59.509Z,58.40
2017-06-25T08:29:25.914Z,58.20
2017-06-25T08:31:53.120Z,57.70
2017-06-25T08:34:20.145Z,57.70
2017-06-25T08:36:46.600Z,57.30
2017-06-25T08:39:13.019Z,56.10
2017-06-25T08:41:39.463Z,56.20
2017-06-25T08:44:05.871Z,56.60
2017-06-25T08:46:32.321Z,56.60
2017-06-25T08:48:59.469Z,56.80
2017-06-25T08:51:26.612Z,56.00
2017-06-25T08:53:54.260Z,55.70
2017-06-25T08:56:20.733Z,55.50
2017-06-25T08:58:47.168Z,54.70
2017-06-25T09:01:14.052Z,54.40
2017-06-25T09:03:40.547Z,54.70
2017-06-25T09:06:06.994Z,54.60
2017-06-25T09:08:33.440Z,54.80
2017-06-25T09:10:59.855Z,54.20
2017-06-25T09:13:26.288Z,52.50
2017-06-25T09:15:53.438Z,54.00
2017-06-25T09:18:19.882Z,54.00
2017-06-25T09:20:46.324Z,54.00
2017-06-25T09:23:12.961Z,52.90
2017-06-25T09:25:39.387Z,52.30
2017-06-25T09:28:05.809Z,53.20
2017-06-25T09:30:32.253Z,53.40
2017-06-25T09:32:58.665Z,51.00
2017-06-25T09:35:26.321Z,50.10
2017-06-25T09:37:52.751Z,50.30
2017-06-25T09:40:19.905Z,47.70
2017-06-25T09:42:46.345Z,47.70
2017-06-25T09:45:13.540Z,48.80
2017-06-25T09:47:40.023Z,48.70
2017-06-25T09:50:06.436Z,49.10
2017-06-25T09:52:33.868Z,47.80
2017-06-25T09:55:00.282Z,49.60
2017-06-25T09:57:26.715Z,51.20
2017-06-25T09:59:53.097Z,52.40
2017-06-25T10:02:19.486Z,53.00
2017-06-25T10:04:45.889Z,52.40
2017-06-25T10:07:12.344Z,53.10
2017-06-25T10:09:38.752Z,53.20
2017-06-25T10:12:05.171Z,54.60
2017-06-25T10:14:31.562Z,54.60
2017-06-25T10:16:57.956Z,56.30
2017-06-25T10:19:24.464Z,56.40
2017-06-25T10:21:51.640Z,56.90
2017-06-25T10:24:18.051Z,56.90
2017-06-25T10:26:44.456Z,56.70
2017-06-25T10:29:10.853Z,57.20
2017-06-25T10:31:37.276Z,57.20
2017-06-25T10:34:03.709Z,57.10
2017-06-25T10:36:30.148Z,57.70
2017-06-25T10:38:56.656Z,58.70
2017-06-25T10:41:23.073Z,58.00
2017-06-25T10:43:49.492Z,58.60
2017-06-25T10:46:15.936Z,57.70
2017-06-25T10:48:42.353Z,57.40
2017-06-25T10:51:08.801Z,56.80
2017-06-25T10:53:35.203Z,56.70
2017-06-25T10:56:01.669Z,54.10
2017-06-25T10:58:28.060Z,55.20
2017-06-25T11:00:54.571Z,53.50
2017-06-25T11:03:21.708Z,53.00
2017-06-25T11:05:48.134Z,53.10
2017-06-25T11:08:14.532Z,52.50
2017-06-25T11:10:40.992Z,51.40
2017-06-25T11:13:07.448Z,50.40
2017-06-25T11:15:33.948Z,51.40
2017-06-25T11:18:00.617Z,50.60
2017-06-25T11:20:27.066Z,49.80
2017-06-25T11:22:53.516Z,51.00
2017-06-25T11:25:20.436Z,50.50
2017-06-25T11:27:46.903Z,50.20
2017-06-25T11:30:13.371Z,50.50
2017-06-25T11:32:39.768Z,49.90
2017-06-25T11:35:11.140Z,50.80
2017-06-25T11:37:38.403Z,49.70
2017-06-25T11:40:04.873Z,52.30
2017-06-25T11:42:31.287Z,51.00
2017-06-25T11:44:57.776Z,52.40
2017-06-25T11:47:24.199Z,52.40
2017-06-25T11:49:50.624Z,52.40
2017-06-25T11:52:17.081Z,52.40
2017-06-25T11:54:45.642Z,52.40
2017-06-25T11:57:12.267Z,52.40
2017-06-25T11:59:38.660Z,52.20
2017-06-25T12:02:05.088Z,52.20
2017-06-25T12:04:46.163Z,52.20
2017-06-25T12:07:12.592Z,52.20
2017-06-25T12:09:39.004Z,51.30
2017-06-25T12:12:05.521Z,50.10
2017-06-25T12:14:31.945Z,51.10
2017-06-25T12:16:58.369Z,49.70
2017-06-25T12:19:24.775Z,50.10
2017-06-25T12:21:51.206Z,49.60
2017-06-25T12:24:17.829Z,48.70
2017-06-25T12:26:44.260Z,49.30
2017-06-25T12:29:10.779Z,48.60
2017-06-25T12:31:37.217Z,49.20
2017-06-25T12:34:03.659Z,49.30
2017-06-25T12:36:30.077Z,48.60
2017-06-25T12:38:56.613Z,48.50
2017-06-25T12:41:23.115Z,50.40
2017-06-25T12:43:51.121Z,48.00
2017-06-25T12:46:17.986Z,48.00
2017-06-25T12:48:44.767Z,47.60
2017-06-25T12:51:11.431Z,47.80
2017-06-25T12:53:38.616Z,47.40
2017-06-25T12:56:05.113Z,47.40
2017-06-25T12:58:31.561Z,47.00
2017-06-25T13:00:58.027Z,47.10
2017-06-25T13:03:24.440Z,46.70
2017-06-25T13:05:50.877Z,46.30
2017-06-25T13:08:17.314Z,46.30
2017-06-25T13:10:43.758Z,47.00
2017-06-25T13:13:10.220Z,47.50
2017-06-25T13:15:36.646Z,47.60
2017-06-25T13:18:03.107Z,47.80
2017-06-25T13:20:30.332Z,47.90
2017-06-25T13:22:56.772Z,47.80
2017-06-25T13:25:23.267Z,48.00
2017-06-25T13:27:49.672Z,48.50
2017-06-25T13:30:16.196Z,49.00
2017-06-25T13:32:42.621Z,48.20
2017-06-25T13:35:09.049Z,49.40
2017-06-25T13:37:35.515Z,47.40
2017-06-25T13:40:01.933Z,47.70
2017-06-25T13:42:28.384Z,47.50
2017-06-25T13:44:54.837Z,48.00
2017-06-25T13:47:21.251Z,47.40
2017-06-25T13:49:47.645Z,48.50
2017-06-25T13:52:14.051Z,47.90
2017-06-25T13:54:40.467Z,48.30
2017-06-25T13:57:06.930Z,47.10
2017-06-25T13:59:33.404Z,48.40
2017-06-25T14:01:59.839Z,47.90
2017-06-25T14:04:26.309Z,48.40
2017-06-25T14:06:52.766Z,48.70
2017-06-25T14:09:19.204Z,48.60
2017-06-25T14:11:45.771Z,48.30
2017-06-25T14:14:12.213Z,48.90
2017-06-25T14:16:38.705Z,48.70
2017-06-25T14:19:05.184Z,48.80
2017-06-25T14:21:31.600Z,48.10
2017-06-25T14:23:58.008Z,48.20
2017-06-25T14:26:24.431Z,48.10
2017-06-25T14:28:50.860Z,48.10
2017-06-25T14:31:17.356Z,48.10
2017-06-25T14:33:43.806Z,47.40
2017-06-25T14:36:10.223Z,47.50
2017-06-25T14:38:37.460Z,48.40
2017-06-25T14:41:03.903Z,47.50
2017-06-25T14:43:30.332Z,47.50
2017-06-25T14:45:56.749Z,47.60
2017-06-25T14:48:23.169Z,47.70
2017-06-25T14:50:49.586Z,47.60
2017-06-25T14:53:16.011Z,46.80
2017-06-25T14:55:42.435Z,46.90
2017-06-25T14:58:08.963Z,47.40
2017-06-25T15:00:35.404Z,47.20
2017-06-25T15:03:01.948Z,47.20
2017-06-25T15:05:28.359Z,47.10
2017-06-25T15:07:54.917Z,46.80
2017-06-25T15:10:21.353Z,46.60
2017-06-25T15:12:47.866Z,46.80
2017-06-25T15:15:14.363Z,47.30
2017-06-25T15:17:40.781Z,47.50
2017-06-25T15:20:07.224Z,47.90
2017-06-25T15:22:33.585Z,47.50
2017-06-25T15:25:00.105Z,46.40
2017-06-25T15:27:26.559Z,46.60
2017-06-25T15:29:53.044Z,46.80
2017-06-25T15:32:19.464Z,46.70
2017-06-25T15:34:45.863Z,45.90
2017-06-25T15:37:12.298Z,45.90
2017-06-25T15:39:38.764Z,45.80
2017-06-25T15:42:05.233Z,46.10
2017-06-25T15:44:31.709Z,46.10
2017-06-25T15:46:58.163Z,46.30
2017-06-25T15:49:24.603Z,46.00
2017-06-25T15:51:51.041Z,46.30
2017-06-25T15:54:17.691Z,46.20
2017-06-25T15:56:44.136Z,45.30
2017-06-25T15:59:11.373Z,46.20
2017-06-25T16:01:37.836Z,46.20
2017-06-25T16:04:04.299Z,45.70
2017-06-25T16:06:32.425Z,45.50
2017-06-25T16:09:00.897Z,45.90
2017-06-25T16:11:27.769Z,45.70
2017-06-25T16:13:54.154Z,45.30
2017-06-25T16:16:21.384Z,45.80
2017-06-25T16:18:47.836Z,45.20
2017-06-25T16:21:14.226Z,45.20
2017-06-25T16:23:54.149Z,44.90
2017-06-25T16:26:20.618Z,45.10
2017-06-25T16:28:47.201Z,44.80
2017-06-25T16:31:18.038Z,44.70
2017-06-25T16:33:44.604Z,45.30
2017-06-25T16:36:11.263Z,45.00
2017-06-25T16:38:37.713Z,44.50
2017-06-25T16:41:08.085Z,44.70
2017-06-25T16:43:34.571Z,44.20
2017-06-25T16:46:00.994Z,45.30
2017-06-25T16:48:28.156Z,44.60
2017-06-25T16:50:54.560Z,44.60
2017-06-25T16:53:21.061Z,45.00
2017-06-25T16:55:47.481Z,43.80
2017-06-25T16:58:13.879Z,44.30
2017-06-25T17:00:44.247Z,44.00
2017-06-25T17:03:10.677Z,44.90
2017-06-25T17:05:37.129Z,44.50
2017-06-25T17:08:03.549Z,43.80
2017-06-25T17:10:29.968Z,43.80
2017-06-25T17:13:00.507Z,44.20
2017-06-25T17:15:26.944Z,43.90
2017-06-25T17:17:53.350Z,43.80
2017-06-25T17:20:19.785Z,43.60
2017-06-25T17:22:46.249Z,42.60
2017-06-25T17:25:12.664Z,42.70
2017-06-25T17:27:39.817Z,42.60
2017-06-25T17:30:08.388Z,43.20
2017-06-25T17:32:35.566Z,42.40
2017-06-25T17:35:02.763Z,42.20
2017-06-25T17:37:29.259Z,42.10
2017-06-25T17:39:55.819Z,42.30
2017-06-25T17:42:22.268Z,42.60
2017-06-25T17:44:48.736Z,42.30
2017-06-25T17:47:15.232Z,41.80
2017-06-25T17:49:43.043Z,42.10
2017-06-25T17:52:09.493Z,42.80
2017-06-25T17:54:35.893Z,43.50
2017-06-25T17:57:02.508Z,42.50
2017-06-25T17:59:28.925Z,42.30
2017-06-25T18:01:55.531Z,42.00
2017-06-25T18:04:22.012Z,43.20
2017-06-25T18:06:48.431Z,41.70
2017-06-25T18:09:14.868Z,42.20
2017-06-25T18:11:41.292Z,43.20
2017-06-25T18:14:07.810Z,42.30
2017-06-25T18:16:34.206Z,42.50
2017-06-25T18:19:00.839Z,41.60
2017-06-25T18:21:27.255Z,42.50
2017-06-25T18:23:54.096Z,42.80
2017-06-25T18:26:20.519Z,42.90
2017-06-25T18:28:46.996Z,43.20
2017-06-25T18:31:14.213Z,42.60
2017-06-25T18:33:40.720Z,42.20
2017-06-25T18:36:07.337Z,42.80
2017-06-25T18:38:33.790Z,42.40
2017-06-25T18:41:00.240Z,43.70
2017-06-25T18:43:26.785Z,43.10
2017-06-25T18:46:12.638Z,42.40
2017-06-25T18:48:45.581Z,42.70
2017-06-25T18:51:12.000Z,42.60
2017-06-25T18:53:38.635Z,42.50
2017-06-25T18:56:05.084Z,42.70
2017-06-25T18:58:31.534Z,42.30
2017-06-25T19:00:57.946Z,42.40
2017-06-25T19:03:24.371Z,42.70
2017-06-25T19:05:50.792Z,42.60
2017-06-25T19:08:17.183Z,43.60
2017-06-25T19:10:43.629Z,43.50
2017-06-25T19:13:10.080Z,43.30
2017-06-25T19:15:36.580Z,43.70
2017-06-25T19:18:02.983Z,43.30
2017-06-25T19:20:29.432Z,43.70
2017-06-25T19:22:56.590Z,44.50
2017-06-25T19:25:23.041Z,44.40
2017-06-25T19:27:49.440Z,44.10
2017-06-25T19:30:15.883Z,44.00
2017-06-25T19:32:42.304Z,44.30
2017-06-25T19:35:08.788Z,44.40
2017-06-25T19:37:35.205Z,43.90
2017-06-25T19:40:02.269Z,44.30
2017-06-25T19:42:28.716Z,43.40
2017-06-25T19:44:56.049Z,44.40
2017-06-25T19:47:22.560Z,44.40
2017-06-25T19:49:49.715Z,44.20
2017-06-25T19:52:16.340Z,44.40
2017-06-25T19:54:42.889Z,43.70
2017-06-25T19:57:09.453Z,43.90
2017-06-25T19:59:35.861Z,44.20
2017-06-25T20:02:02.895Z,44.50
2017-06-25T20:04:30.282Z,45.30
2017-06-25T20:06:57.272Z,45.40
2017-06-25T20:09:23.731Z,44.70
2017-06-25T20:11:50.910Z,44.50
2017-06-25T20:14:18.149Z,44.50
2017-06-25T20:16:44.851Z,45.70
2017-06-25T20:19:11.287Z,47.20
2017-06-25T20:21:37.841Z,47.10
2017-06-25T20:24:04.873Z,48.30
2017-06-25T20:26:31.409Z,48.00
2017-06-25T20:28:58.624Z,48.50
2017-06-25T20:31:25.049Z,48.50
2017-06-25T20:33:51.529Z,48.80
2017-06-25T20:36:18.092Z,49.20
2017-06-25T20:38:45.239Z,49.60
2017-06-25T20:41:11.664Z,49.60
2017-06-25T20:43:38.149Z,49.40
2017-06-25T20:46:04.640Z,50.20
2017-06-25T20:48:31.057Z,49.70
2017-06-25T20:50:58.363Z,50.40
2017-06-25T20:53:25.615Z,50.50
2017-06-25T20:55:52.069Z,50.90
2017-06-25T20:58:18.488Z,51.20
2017-06-25T21:00:44.937Z,51.90
2017-06-25T21:03:11.388Z,51.80
2017-06-25T21:05:38.571Z,51.90
2017-06-25T21:08:05.545Z,51.90
2017-06-25T21:10:31.996Z,51.20
2017-06-25T21:12:58.552Z,51.60
2017-06-25T21:15:24.964Z,51.30
2017-06-25T21:17:51.376Z,52.60
2017-06-25T21:20:17.796Z,51.90
2017-06-25T21:22:44.229Z,51.70
2017-06-25T21:25:10.667Z,52.20
2017-06-25T21:27:37.373Z,52.10
2017-06-25T21:30:03.827Z,52.50
2017-06-25T21:32:30.326Z,53.30
2017-06-25T21:34:56.892Z,53.20
2017-06-25T21:37:23.420Z,54.10
2017-06-25T21:39:49.842Z,53.50
2017-06-25T21:42:17.028Z,54.40
2017-06-25T21:44:43.464Z,54.40
2017-06-25T21:47:09.908Z,54.10
2017-06-25T21:49:36.313Z,54.40
2017-06-25T21:52:02.751Z,54.80
2017-06-25T21:54:29.651Z,55.30
2017-06-25T21:56:56.200Z,55.50
2017-06-25T21:59:22.721Z,54.90
2017-06-25T22:01:49.226Z,53.60
2017-06-25T22:04:15.676Z,52.40
2017-06-25T22:06:42.141Z,51.50
2017-06-25T22:09:09.313Z,49.60
2017-06-25T22:11:35.778Z,49.10
2017-06-25T22:14:02.215Z,50.40
2017-06-25T22:16:28.640Z,48.60
2017-06-25T22:18:55.086Z,48.60
2017-06-25T22:21:21.567Z,48.70
2017-06-25T22:23:48.005Z,48.80
2017-06-25T22:26:14.447Z,48.40
2017-06-25T22:28:40.869Z,47.60
2017-06-25T22:31:07.295Z,48.20
2017-06-25T22:33:34.467Z,47.60
2017-06-25T22:36:00.899Z,47.50
2017-06-25T22:38:27.388Z,48.40
2017-06-25T22:41:08.724Z,48.30
2017-06-25T22:43:35.284Z,48.40
2017-06-25T22:46:01.738Z,48.20
2017-06-25T22:48:28.940Z,48.80
2017-06-25T22:50:55.358Z,48.80
2017-06-25T22:53:21.789Z,48.40
2017-06-25T22:55:48.337Z,48.10
2017-06-25T22:58:14.811Z,48.60
2017-06-25T23:00:41.223Z,48.40
2017-06-25T23:03:07.792Z,48.40
2017-06-25T23:05:34.232Z,48.90
2017-06-25T23:08:00.670Z,48.40
2017-06-25T23:10:27.097Z,48.80
2017-06-25T23:12:53.534Z,49.00
2017-06-25T23:15:20.009Z,49.20
2017-06-25T23:17:46.476Z,48.60
2017-06-25T23:20:12.903Z,49.60
2017-06-25T23:22:39.483Z,49.90
2017-06-25T23:25:06.628Z,50.60
2017-06-25T23:27:33.059Z,49.70
2017-06-25T23:29:59.492Z,49.50
2017-06-25T23:32:25.936Z,48.80
2017-06-25T23:34:52.390Z,49.70
2017-06-25T23:37:18.792Z,49.40
2017-06-25T23:39:45.223Z,49.90
2017-06-25T23:42:12.392Z,50.10
2017-06-25T23:44:40.306Z,50.00
2017-06-25T23:47:06.708Z,49.70
2017-06-25T23:49:33.121Z,50.40
2017-06-25T23:51:59.566Z,50.40
2017-06-25T23:54:25.979Z,50.50
2017-06-25T23:56:52.456Z,50.50
2017-06-25T23:59:18.867Z,50.40
